Time;durP1;ratioP1;P1;durP2;ratioP2;P2;SDS_P1;SDS_P2;PMS_P1;PMS_P2;Temp;Humidity;BMP_temperature;BMP_pressure;BME280_temperature;BME280_humidity;BME280_pressure;Samples;Min_cycle;Max_cycle;Signal;HPM_P1;HPM_P2
2023/06/20 00:01:35;;;;;;;22.40;13.53;;;;;;;16.01;100.00;101478.34;7372902;19;20958;-36
2023/06/20 00:04:05;;;;;;;21.57;13.60;;;;;;;16.12;100.00;101478.66;7397163;19;20427;-35
2023/06/20 00:06:35;;;;;;;22.20;13.10;;;;;;;16.25;100.00;101487.75;7372649;19;20474;-34
2023/06/20 00:09:04;;;;;;;17.90;12.17;;;;;;;16.16;100.00;101488.34;7396944;19;20768;-36
2023/06/20 00:11:34;;;;;;;17.73;12.00;;;;;;;16.12;100.00;101491.69;7371584;19;20435;-38
2023/06/20 00:14:03;;;;;;;20.93;12.83;;;;;;;16.10;100.00;101488.16;7396722;19;20837;-38
2023/06/20 00:16:35;;;;;;;17.90;11.80;;;;;;;16.01;100.00;101479.22;7371430;19;20459;-42
2023/06/20 00:19:05;;;;;;;17.90;11.80;;;;;;;15.98;100.00;101476.53;7397028;19;20411;-38
2023/06/20 00:21:39;;;;;;;19.23;12.43;;;;;;;15.78;100.00;101474.16;7373148;19;20502;-36
2023/06/20 00:24:10;;;;;;;15.97;11.77;;;;;;;15.98;100.00;101467.81;7395499;19;20406;-39
2023/06/20 00:26:39;;;;;;;16.20;11.30;;;;;;;16.02;100.00;101469.69;7369393;19;21034;-38
2023/06/20 00:29:09;;;;;;;18.60;11.30;;;;;;;15.99;100.00;101469.63;7395448;19;20414;-37
2023/06/20 00:31:41;;;;;;;19.07;12.03;;;;;;;16.00;100.00;101466.19;7371764;19;20427;-36
2023/06/20 00:34:11;;;;;;;21.23;11.73;;;;;;;15.71;100.00;101469.59;7395957;19;20418;-42
2023/06/20 00:36:41;;;;;;;18.53;12.60;;;;;;;15.59;100.00;101449.25;7370349;19;20465;-37
2023/06/20 00:39:11;;;;;;;16.83;11.97;;;;;;;15.68;100.00;101429.59;7398228;19;20407;-37
2023/06/20 00:41:41;;;;;;;20.67;12.23;;;;;;;15.63;100.00;101419.03;7371823;19;20957;-37
2023/06/20 00:44:11;;;;;;;20.70;12.60;;;;;;;15.62;100.00;101412.06;7398088;19;20495;-37
2023/06/20 00:46:44;;;;;;;18.70;12.83;;;;;;;15.63;100.00;101399.13;7371451;19;21273;-39
2023/06/20 00:49:13;;;;;;;23.43;13.00;;;;;;;15.64;100.00;101380.06;7396520;19;20411;-37
2023/06/20 00:51:43;;;;;;;18.97;12.70;;;;;;;15.53;100.00;101371.94;7371411;19;20891;-40
2023/06/20 00:54:13;;;;;;;21.30;12.90;;;;;;;15.40;100.00;101369.81;7395647;19;20432;-34
2023/06/20 00:56:44;;;;;;;21.87;13.40;;;;;;;15.43;100.00;101362.09;7371611;19;20554;-38
2023/06/20 00:59:14;;;;;;;22.83;13.67;;;;;;;15.46;100.00;101362.19;7397972;19;20428;-39
2023/06/20 01:01:46;;;;;;;16.33;11.07;;;;;;;15.31;100.00;101360.00;7372500;19;20447;-38
2023/06/20 01:04:16;;;;;;;17.03;12.50;;;;;;;15.18;100.00;101353.50;7395234;19;20455;-42
2023/06/20 01:06:51;;;;;;;20.00;13.40;;;;;;;15.21;100.00;101345.81;7370784;19;20480;-34
2023/06/20 01:09:26;;;;;;;20.07;13.30;;;;;;;15.22;100.00;101338.88;7394340;19;20918;-43
2023/06/20 01:12:00;;;;;;;18.43;13.60;;;;;;;15.23;100.00;101335.47;7371272;19;20430;-34
2023/06/20 01:14:35;;;;;;;18.63;13.10;;;;;;;15.12;100.00;101335.09;7395585;19;20418;-42
2023/06/20 01:17:12;;;;;;;22.60;13.97;;;;;;;15.08;100.00;101336.72;7370144;19;21014;-37
2023/06/20 01:19:53;;;;;;;21.63;13.07;;;;;;;15.08;100.00;101323.75;7396777;19;20415;-38
2023/06/20 01:22:44;;;;;;;24.07;14.70;;;;;;;14.93;100.00;101324.13;7368738;19;20546;-40
2023/06/20 01:25:23;;;;;;;18.90;13.10;;;;;;;14.83;100.00;101306.47;7387251;19;20444;-34
2023/06/20 01:27:59;;;;;;;18.03;12.93;;;;;;;14.67;100.00;101286.88;7395090;19;20589;-37
2023/06/20 01:30:36;;;;;;;16.73;12.30;;;;;;;14.60;100.00;101265.00;7370517;19;20411;-39
2023/06/20 01:33:08;;;;;;;20.77;13.07;;;;;;;14.56;100.00;101252.78;7393820;19;20407;-36
2023/06/20 01:35:39;;;;;;;19.70;13.00;;;;;;;14.51;100.00;101238.75;7370336;19;20395;-38
2023/06/20 01:38:14;;;;;;;19.97;13.27;;;;;;;14.54;100.00;101223.25;7391273;19;20455;-39
2023/06/20 01:40:48;;;;;;;18.10;13.40;;;;;;;14.57;100.00;101207.78;7367302;19;20486;-39
2023/06/20 01:43:19;;;;;;;16.90;12.57;;;;;;;14.69;100.00;101203.00;7393449;19;20454;-40
2023/06/20 01:45:53;;;;;;;24.13;14.60;;;;;;;14.72;100.00;101197.88;7368215;19;20451;-36
2023/06/20 01:48:25;;;;;;;19.30;13.33;;;;;;;14.71;100.00;101196.13;7392818;19;20419;-36
2023/06/20 01:50:55;;;;;;;20.87;14.27;;;;;;;14.75;100.00;101201.44;7369848;19;20774;-38
2023/06/20 01:53:29;;;;;;;21.90;14.70;;;;;;;14.78;100.00;101185.97;7392052;19;20825;-35
2023/06/20 01:56:03;;;;;;;20.60;14.53;;;;;;;14.57;100.00;101187.03;7368319;19;20410;-34
2023/06/20 01:58:33;;;;;;;20.37;12.87;;;;;;;14.48;100.00;101194.50;7391961;19;20432;-38
2023/06/20 02:01:04;;;;;;;20.03;13.03;;;;;;;14.30;100.00;101187.88;7365556;19;20463;-43
2023/06/20 02:03:34;;;;;;;19.20;13.80;;;;;;;14.45;100.00;101183.19;7392143;19;20415;-35
2023/06/20 02:06:04;;;;;;;21.57;14.00;;;;;;;14.60;100.00;101179.31;7363213;19;20427;-33
2023/06/20 02:08:37;;;;;;;23.87;15.67;;;;;;;14.44;100.00;101176.25;7392700;19;20422;-37
2023/06/20 02:11:07;;;;;;;22.70;15.37;;;;;;;14.52;100.00;101167.81;7366710;19;20421;-39
2023/06/20 02:13:38;;;;;;;23.23;15.90;;;;;;;14.43;100.00;101164.09;7392803;19;20418;-36
2023/06/20 02:16:09;;;;;;;22.47;16.60;;;;;;;14.32;100.00;101165.47;7367248;19;20563;-39
2023/06/20 02:18:40;;;;;;;22.60;14.53;;;;;;;14.29;100.00;101160.16;7392784;19;20447;-35
2023/06/20 02:21:13;;;;;;;20.67;14.73;;;;;;;14.35;100.00;101154.28;7364762;19;20783;-37
2023/06/20 02:23:47;;;;;;;23.57;15.53;;;;;;;14.32;100.00;101149.88;7392170;19;20411;-43
2023/06/20 02:26:20;;;;;;;22.80;16.00;;;;;;;14.36;100.00;101146.53;7367008;19;20490;-38
2023/06/20 02:28:51;;;;;;;19.53;14.37;;;;;;;14.20;100.00;101145.16;7392679;19;20431;-37
2023/06/20 02:31:24;;;;;;;19.30;13.70;;;;;;;14.17;100.00;101145.06;7367979;19;20507;-37
2023/06/20 02:33:56;;;;;;;21.03;14.23;;;;;;;14.07;100.00;101143.88;7393318;19;20414;-40
2023/06/20 02:36:27;;;;;;;20.70;13.70;;;;;;;14.11;100.00;101145.72;7366828;19;20471;-41
2023/06/20 02:39:00;;;;;;;20.47;13.97;;;;;;;14.16;100.00;101149.38;7394383;19;20780;-34
2023/06/20 02:41:29;;;;;;;23.87;14.20;;;;;;;14.31;100.00;101141.22;7367959;19;20433;-38
2023/06/20 02:43:59;;;;;;;23.30;15.60;;;;;;;14.31;100.00;101145.53;7394356;19;20810;-39
2023/06/20 02:46:33;;;;;;;29.90;18.67;;;;;;;14.26;100.00;101140.16;7367454;19;20473;-37
2023/06/20 02:49:10;;;;;;;27.77;16.30;;;;;;;14.05;100.00;101140.34;7394136;19;20989;-38
2023/06/20 02:51:44;;;;;;;28.03;18.03;;;;;;;14.06;100.00;101136.94;7368537;19;20502;-35
2023/06/20 02:54:19;;;;;;;28.63;18.90;;;;;;;13.97;100.00;101136.59;7391834;19;20423;-36
2023/06/20 02:56:51;;;;;;;27.47;18.10;;;;;;;13.96;100.00;101133.16;7367545;19;20529;-36
2023/06/20 02:59:21;;;;;;;28.97;18.20;;;;;;;14.02;100.00;101125.56;7394847;19;20421;-34
2023/06/20 03:01:52;;;;;;;26.90;16.50;;;;;;;13.96;100.00;101116.69;7368521;19;20429;-36
2023/06/20 03:04:22;;;;;;;25.77;17.50;;;;;;;14.01;100.00;101117.72;7391725;19;20404;-38
2023/06/20 03:06:53;;;;;;;26.23;17.80;;;;;;;14.05;100.00;101104.00;7366901;19;20472;-38
2023/06/20 03:09:26;;;;;;;25.50;18.20;;;;;;;14.04;100.00;101102.25;7392121;19;20451;-36
2023/06/20 03:11:55;;;;;;;34.20;17.30;;;;;;;14.10;100.00;101097.28;7367733;19;20434;-42
2023/06/20 03:14:28;;;;;;;21.57;14.37;;;;;;;14.16;100.00;101086.22;7392078;19;20416;-40
2023/06/20 03:16:59;;;;;;;23.03;14.77;;;;;;;14.11;100.00;101098.16;7367582;19;20859;-39
2023/06/20 03:19:32;;;;;;;23.03;15.90;;;;;;;14.13;100.00;101101.69;7392102;19;20836;-38
2023/06/20 03:22:02;;;;;;;92.77;49.07;;;;;;;14.28;100.00;101098.69;7364819;19;20958;-37
2023/06/20 03:24:35;;;;;;;130.63;68.23;;;;;;;14.36;100.00;101105.00;7392632;19;20411;-37
2023/06/20 03:27:05;;;;;;;47.90;26.07;;;;;;;14.27;100.00;101100.44;7366013;19;21319;-38
2023/06/20 03:29:34;;;;;;;42.67;27.63;;;;;;;14.20;100.00;101107.97;7391591;19;20416;-38
2023/06/20 03:32:04;;;;;;;43.77;25.83;;;;;;;14.16;100.00;101117.38;7366318;19;20967;-41
2023/06/20 03:34:34;;;;;;;28.90;18.00;;;;;;;14.31;100.00;101125.63;7398509;19;20424;-33
2023/06/20 03:37:04;;;;;;;48.43;27.67;;;;;;;14.21;100.00;101120.09;7372503;19;20540;-37
2023/06/20 03:39:36;;;;;;;36.87;21.90;;;;;;;14.16;100.00;101123.41;7393234;19;20404;-38
2023/06/20 03:42:07;;;;;;;32.10;18.87;;;;;;;14.18;100.00;101126.97;7373864;19;20444;-37
2023/06/20 03:44:37;;;;;;;30.83;19.10;;;;;;;14.26;100.00;101139.31;7397333;19;20426;-36
2023/06/20 03:47:06;;;;;;;25.90;18.07;;;;;;;14.22;100.00;101127.06;7373425;19;20457;-40
2023/06/20 03:49:37;;;;;;;25.13;17.83;;;;;;;14.23;100.00;101126.22;7398767;19;20423;-42
2023/06/20 03:52:07;;;;;;;28.37;17.33;;;;;;;14.36;100.00;101135.28;7373900;19;20423;-38
2023/06/20 03:54:41;;;;;;;22.77;16.00;;;;;;;14.46;100.00;101134.72;7396971;19;20439;-39
2023/06/20 03:57:11;;;;;;;21.63;14.80;;;;;;;14.49;100.00;101124.47;7371894;19;20455;-35
2023/06/20 03:59:40;;;;;;;21.20;13.90;;;;;;;14.48;100.00;101124.41;7396894;19;20502;-42
2023/06/20 04:02:10;;;;;;;27.80;16.03;;;;;;;14.66;100.00;101127.56;7373559;19;20966;-35
2023/06/20 04:04:40;;;;;;;24.30;15.67;;;;;;;14.70;100.00;101131.16;7397157;19;20419;-36
2023/06/20 04:07:10;;;;;;;22.43;15.17;;;;;;;14.74;100.00;101137.31;7371340;19;20454;-39
2023/06/20 04:09:42;;;;;;;22.43;15.83;;;;;;;14.77;100.00;101147.84;7398371;19;20491;-39
2023/06/20 04:12:12;;;;;;;26.03;17.23;;;;;;;14.96;100.00;101142.38;7372686;19;20912;-37
2023/06/20 04:14:42;;;;;;;21.90;15.87;;;;;;;15.08;100.00;101154.81;7397242;19;20411;-37
2023/06/20 04:17:12;;;;;;;25.00;16.50;;;;;;;15.26;100.00;101156.22;7371782;19;20480;-39
2023/06/20 04:19:42;;;;;;;27.40;18.70;;;;;;;15.29;100.00;101165.81;7398076;19;20415;-38
2023/06/20 04:22:12;;;;;;;23.63;16.30;;;;;;;15.38;100.00;101173.88;7371600;19;20419;-35
2023/06/20 04:24:44;;;;;;;27.20;16.73;;;;;;;15.33;100.00;101180.69;7399570;19;20490;-39
2023/06/20 04:27:15;;;;;;;23.57;16.10;;;;;;;15.43;100.00;101190.47;7371772;19;20843;-36
2023/06/20 04:29:44;;;;;;;27.10;16.20;;;;;;;15.52;100.00;101197.66;7398135;19;20407;-40
2023/06/20 04:32:14;;;;;;;25.77;16.83;;;;;;;15.59;100.00;101202.19;7373028;19;20502;-39
2023/06/20 04:34:44;;;;;;;23.17;16.80;;;;;;;15.66;100.00;101203.25;7396085;19;20396;-37
2023/06/20 04:37:13;;;;;;;21.13;15.27;;;;;;;15.65;100.00;101201.50;7372837;19;21085;-42
2023/06/20 04:39:46;;;;;;;23.73;14.67;;;;;;;15.68;100.00;101204.19;7397982;19;20471;-37
2023/06/20 04:42:15;;;;;;;20.07;14.63;;;;;;;15.74;100.00;101203.47;7372214;19;20455;-39
2023/06/20 04:44:48;;;;;;;21.47;13.77;;;;;;;15.81;100.00;101200.22;7394610;19;20420;-37
2023/06/20 04:47:18;;;;;;;20.10;14.00;;;;;;;15.95;100.00;101212.75;7372061;19;20506;-39
2023/06/20 04:49:47;;;;;;;18.40;13.20;;;;;;;16.04;100.00;101213.88;7397816;19;20407;-39
2023/06/20 04:52:17;;;;;;;18.20;12.97;;;;;;;16.08;100.00;101219.13;7373137;19;20514;-35
2023/06/20 04:54:49;;;;;;;19.87;12.53;;;;;;;16.23;100.00;101223.84;7396438;19;20492;-39
2023/06/20 04:57:19;;;;;;;19.07;12.17;;;;;;;16.21;100.00;101223.84;7371314;19;20516;-39
2023/06/20 04:59:49;;;;;;;18.13;13.40;;;;;;;16.20;100.00;101229.88;7397470;19;20422;-36
2023/06/20 05:02:19;;;;;;;21.77;11.60;;;;;;;16.28;100.00;101230.97;7372644;19;20474;-36
2023/06/20 05:04:49;;;;;;;19.50;11.60;;;;;;;16.31;100.00;101240.59;7397010;19;20416;-37
2023/06/20 05:07:19;;;;;;;17.67;11.50;;;;;;;16.39;100.00;101248.56;7370555;19;20455;-34
2023/06/20 05:09:52;;;;;;;14.47;10.30;;;;;;;16.43;100.00;101253.03;7397345;19;20419;-38
2023/06/20 05:12:21;;;;;;;18.30;10.90;;;;;;;16.43;100.00;101255.63;7371562;19;20443;-40
2023/06/20 05:14:51;;;;;;;23.43;13.83;;;;;;;16.57;100.00;101261.19;7396624;19;20764;-37
2023/06/20 05:17:21;;;;;;;34.40;20.07;;;;;;;16.62;100.00;101264.81;7369935;19;20616;-36
2023/06/20 05:19:50;;;;;;;18.50;11.97;;;;;;;16.70;100.00;101270.19;7396008;19;20403;-36
2023/06/20 05:22:20;;;;;;;24.93;15.93;;;;;;;16.85;100.00;101270.56;7371363;19;20427;-34
2023/06/20 05:24:52;;;;;;;22.60;13.90;;;;;;;16.83;100.00;101271.38;7395932;19;20421;-35
2023/06/20 05:27:21;;;;;;;17.43;10.10;;;;;;;16.86;100.00;101272.31;7370681;19;20794;-36
2023/06/20 05:29:51;;;;;;;14.10;9.90;;;;;;;16.88;100.00;101280.19;7396502;19;20423;-38
2023/06/20 05:32:21;;;;;;;16.77;8.47;;;;;;;16.95;100.00;101284.69;7368660;19;20431;-37
2023/06/20 05:34:51;;;;;;;23.10;9.30;;;;;;;17.05;100.00;101283.22;7394798;19;20403;-35
2023/06/20 05:37:21;;;;;;;15.70;10.20;;;;;;;17.09;100.00;101286.78;7368207;19;20463;-41
2023/06/20 05:39:53;;;;;;;16.43;10.10;;;;;;;17.21;100.00;101296.59;7393272;19;20403;-38
2023/06/20 05:42:22;;;;;;;13.90;9.30;;;;;;;17.29;100.00;101300.28;7371066;19;20534;-36
2023/06/20 05:44:52;;;;;;;13.37;8.97;;;;;;;17.44;100.00;101306.66;7394120;19;20495;-36
2023/06/20 05:47:22;;;;;;;14.57;10.47;;;;;;;17.52;100.00;101305.09;7366073;19;20455;-37
2023/06/20 05:49:51;;;;;;;17.40;10.27;;;;;;;17.51;100.00;101306.84;7395047;19;20420;-37
2023/06/20 05:52:22;;;;;;;17.77;9.93;;;;;;;17.52;100.00;101307.72;7365646;19;20522;-41
2023/06/20 05:54:55;;;;;;;13.20;8.73;;;;;;;17.53;100.00;101309.47;7393829;19;20487;-40
2023/06/20 05:57:25;;;;;;;16.57;8.00;;;;;;;17.44;100.00;101304.94;7369390;19;20476;-36
2023/06/20 05:59:54;;;;;;;10.93;8.47;;;;;;;17.47;100.00;101310.22;7395513;19;20487;-40
2023/06/20 06:02:24;;;;;;;23.50;13.20;;;;;;;17.47;100.00;101311.94;7369232;19;20431;-40
2023/06/20 06:04:54;;;;;;;17.90;10.90;;;;;;;17.39;100.00;101312.66;7395136;19;20475;-36
2023/06/20 06:07:24;;;;;;;26.90;13.97;;;;;;;17.45;100.00;101306.72;7368967;19;20540;-37
2023/06/20 06:09:57;;;;;;;15.27;9.70;;;;;;;17.44;100.00;101311.88;7396040;19;20408;-39
2023/06/20 06:12:26;;;;;;;15.50;9.00;;;;;;;17.47;100.00;101301.50;7369521;19;20428;-34
2023/06/20 06:14:56;;;;;;;15.87;10.57;;;;;;;17.60;100.00;101295.72;7394567;19;20495;-39
2023/06/20 06:17:26;;;;;;;17.83;10.43;;;;;;;17.73;100.00;101285.56;7368738;19;20542;-41
2023/06/20 06:19:56;;;;;;;12.27;8.20;;;;;;;17.79;100.00;101275.25;7394354;19;20425;-36
2023/06/20 06:22:26;;;;;;;13.10;7.60;;;;;;;17.92;100.00;101272.03;7368805;19;21019;-39
2023/06/20 06:24:58;;;;;;;19.47;7.80;;;;;;;18.08;100.00;101272.34;7395636;19;20486;-40
2023/06/20 06:27:28;;;;;;;11.67;8.17;;;;;;;18.12;100.00;101276.78;7367488;19;20539;-36
2023/06/20 06:29:58;;;;;;;14.60;8.40;;;;;;;18.18;100.00;101263.81;7395055;19;20399;-39
2023/06/20 06:32:27;;;;;;;10.93;8.57;;;;;;;18.27;100.00;101273.56;7369525;19;20447;-36
2023/06/20 06:34:59;;;;;;;12.17;7.83;;;;;;;18.37;100.00;101281.56;7394170;19;20805;-40
2023/06/20 06:37:29;;;;;;;12.70;6.83;;;;;;;18.52;100.00;101283.56;7368404;19;20465;-38
2023/06/20 06:40:01;;;;;;;9.23;6.80;;;;;;;18.53;100.00;101286.19;7396945;19;20424;-40
2023/06/20 06:42:31;;;;;;;11.10;6.27;;;;;;;18.55;100.00;101294.94;7368622;19;20424;-42
2023/06/20 06:45:00;;;;;;;8.70;6.37;;;;;;;18.54;100.00;101305.34;7393118;19;20415;-42
2023/06/20 06:47:30;;;;;;;22.90;12.80;;;;;;;18.64;100.00;101312.50;7367496;19;20472;-41
2023/06/20 06:50:00;;;;;;;17.00;10.20;;;;;;;18.65;100.00;101302.94;7394321;19;20416;-37
2023/06/20 06:52:29;;;;;;;25.63;15.77;;;;;;;18.81;100.00;101304.09;7368987;19;21012;-38
2023/06/20 06:55:01;;;;;;;11.73;8.50;;;;;;;18.90;100.00;101317.28;7392925;19;21242;-37
2023/06/20 06:57:31;;;;;;;14.20;8.40;;;;;;;18.83;100.00;101338.97;7367062;19;20473;-35
2023/06/20 07:00:01;;;;;;;23.70;14.27;;;;;;;18.94;100.00;101329.56;7393023;19;20947;-41
2023/06/20 07:02:30;;;;;;;12.23;7.53;;;;;;;19.03;100.00;101340.19;7366753;19;20863;-38
2023/06/20 07:05:00;;;;;;;10.77;6.50;;;;;;;19.05;100.00;101352.41;7394692;19;20422;-36
2023/06/20 07:07:30;;;;;;;8.20;5.97;;;;;;;19.19;100.00;101345.66;7368099;19;20458;-35
2023/06/20 07:10:02;;;;;;;8.27;5.80;;;;;;;19.27;100.00;101362.34;7399964;19;20415;-36
2023/06/20 07:12:32;;;;;;;8.97;6.40;;;;;;;19.45;100.00;101363.50;7374265;19;20427;-37
2023/06/20 07:15:01;;;;;;;8.10;6.20;;;;;;;19.60;100.00;101375.03;7401511;19;20884;-36
2023/06/20 07:17:31;;;;;;;8.30;5.83;;;;;;;19.69;100.00;101389.13;7372562;19;20509;-35
2023/06/20 07:20:01;;;;;;;8.97;5.50;;;;;;;19.80;100.00;101396.25;7399532;19;20435;-34
2023/06/20 07:22:31;;;;;;;9.67;6.10;;;;;;;19.95;100.00;101411.28;7372369;19;20459;-35
2023/06/20 07:25:03;;;;;;;8.70;5.40;;;;;;;19.94;100.00;101439.19;7398712;19;20411;-39
2023/06/20 07:27:32;;;;;;;9.50;6.50;;;;;;;20.06;100.00;101454.22;7372696;19;20460;-37
2023/06/20 07:30:02;;;;;;;9.03;4.90;;;;;;;20.17;100.00;101458.72;7399244;19;20423;-41
2023/06/20 07:32:32;;;;;;;9.20;5.47;;;;;;;20.18;100.00;101476.19;7372731;19;20431;-34
2023/06/20 07:35:02;;;;;;;7.73;5.20;;;;;;;20.25;100.00;101499.00;7398502;19;20665;-36
2023/06/20 07:37:31;;;;;;;8.10;5.20;;;;;;;20.39;100.00;101524.53;7372040;19;20914;-40
2023/06/20 07:40:06;;;;;;;7.77;5.20;;;;;;;20.46;100.00;101524.59;7397904;19;20407;-35
2023/06/20 07:42:38;;;;;;;8.57;5.47;;;;;;;20.59;100.00;101515.16;7371615;19;20440;-38
2023/06/20 07:45:09;;;;;;;7.53;4.70;;;;;;;20.62;100.00;101493.34;7395666;19;20411;-35
2023/06/20 07:47:39;;;;;;;8.83;4.27;;;;;;;20.71;100.00;101455.88;7372542;19;20835;-34
2023/06/20 07:50:09;;;;;;;8.70;4.10;;;;;;;20.80;100.00;101435.00;7398582;19;20482;-36
2023/06/20 07:52:40;;;;;;;8.03;4.43;;;;;;;20.83;100.00;101416.69;7374268;19;21363;-37
2023/06/20 07:55:13;;;;;;;7.23;4.57;;;;;;;20.89;100.00;101408.91;7395007;19;20423;-35
2023/06/20 07:57:57;;;;;;;6.60;4.20;;;;;;;21.06;100.00;101396.81;7372914;19;20466;-37
2023/06/20 08:00:28;;;;;;;8.67;4.60;;;;;;;21.17;100.00;101388.13;7371509;19;20423;-40
2023/06/20 08:02:58;;;;;;;7.30;4.47;;;;;;;21.13;100.00;101360.13;7395017;19;20957;-37
2023/06/20 08:05:28;;;;;;;7.10;4.67;;;;;;;21.04;100.00;101350.44;7370458;19;20443;-36
2023/06/20 08:07:58;;;;;;;6.10;4.20;;;;;;;21.12;100.00;101358.38;7394615;19;20443;-41
2023/06/20 08:10:30;;;;;;;9.77;4.80;;;;;;;21.31;100.00;101351.50;7370888;19;20478;-33
2023/06/20 08:13:02;;;;;;;7.83;4.83;;;;;;;21.42;100.00;101330.56;7396739;19;20474;-40
2023/06/20 08:15:31;;;;;;;11.70;5.07;;;;;;;21.58;100.00;101320.13;7371572;19;20439;-39
2023/06/20 08:18:01;;;;;;;9.30;4.17;;;;;;;21.70;100.00;101314.97;7397451;19;20451;-35
2023/06/20 08:20:31;;;;;;;7.63;4.60;;;;;;;21.64;100.00;101304.41;7372126;19;20961;-37
2023/06/20 08:23:00;;;;;;;6.83;4.40;;;;;;;21.71;100.00;101303.63;7399598;19;20733;-35
2023/06/20 08:25:33;;;;;;;7.27;4.60;;;;;;;21.88;100.00;101292.28;7374141;19;20470;-39
2023/06/20 08:28:02;;;;;;;6.80;4.50;;;;;;;22.04;100.00;101266.09;7397181;19;20539;-35
2023/06/20 08:30:44;;;;;;;8.27;4.33;;;;;;;22.18;100.00;101232.81;7368922;19;20951;-35
2023/06/20 08:33:13;;;;;;;8.70;5.33;;;;;;;;;;7395187;19;20412;-36
2023/06/20 08:35:42;;;;;;;9.07;4.60;;;;;;;22.34;100.00;101198.66;7371678;19;20961;-37
2023/06/20 08:38:12;;;;;;;8.50;4.17;;;;;;;22.50;100.00;101174.13;7394766;19;20472;-39
2023/06/20 08:40:45;;;;;;;8.77;4.77;;;;;;;22.54;100.00;101122.44;7371572;19;20399;-37
2023/06/20 08:43:16;;;;;;;8.50;4.90;;;;;;;22.59;100.00;101038.28;7394988;19;20407;-38
2023/06/20 08:45:46;;;;;;;9.63;4.33;;;;;;;22.60;100.00;100945.41;7368986;19;20407;-37
2023/06/20 08:48:15;;;;;;;8.50;4.90;;;;;;;22.67;100.00;100897.19;7395858;19;20443;-40
2023/06/20 08:50:47;;;;;;;9.33;4.80;;;;;;;22.69;100.00;100873.47;7371706;19;20842;-40
2023/06/20 08:53:17;;;;;;;9.00;4.33;;;;;;;22.83;100.00;100820.78;7395705;19;20411;-37
2023/06/20 08:55:54;;;;;;;9.60;5.00;;;;;;;22.87;100.00;100794.44;7371225;19;20399;-36
2023/06/20 08:58:24;;;;;;;10.50;4.80;;;;;;;22.84;100.00;100765.56;7395055;19;20787;-36
2023/06/20 09:00:53;;;;;;;8.53;5.30;;;;;;;22.75;100.00;100763.88;7371560;19;20866;-39
2023/06/20 09:03:23;;;;;;;7.63;4.80;;;;;;;22.70;100.00;100747.28;7396007;19;20411;-38
2023/06/20 09:05:53;;;;;;;7.73;4.77;;;;;;;22.69;100.00;100732.38;7371986;19;20399;-37
2023/06/20 09:08:23;;;;;;;7.57;4.50;;;;;;;22.64;100.00;100731.56;7394007;19;20466;-34
2023/06/20 09:11:10;;;;;;;7.70;4.90;;;;;;;22.60;100.00;100725.44;7370585;19;20403;-34
2023/06/20 09:13:41;;;;;;;8.47;4.80;;;;;;;22.62;100.00;100712.31;7395643;19;20408;-35
2023/06/20 09:16:13;;;;;;;7.50;4.80;;;;;;;22.66;100.00;100700.84;7369654;19;20431;-37
2023/06/20 09:18:42;;;;;;;8.07;5.07;;;;;;;22.74;100.00;100701.66;7395253;19;20483;-40
2023/06/20 09:21:17;;;;;;;8.50;5.23;;;;;;;22.97;100.00;100697.06;7369710;19;20419;-39
2023/06/20 09:23:47;;;;;;;9.40;4.87;;;;;;;23.18;100.00;100707.31;7395527;19;20442;-35
2023/06/20 09:26:19;;;;;;;7.97;4.67;;;;;;;23.27;100.00;100701.09;7368003;19;20506;-37
2023/06/20 09:28:51;;;;;;;8.30;5.67;;;;;;;23.29;100.00;100695.81;7392170;19;20837;-35
2023/06/20 09:31:21;;;;;;;11.50;6.30;;;;;;;23.42;100.00;100699.16;7366654;19;20498;-34
2023/06/20 09:33:52;;;;;;;8.40;4.40;;;;;;;23.56;100.00;100699.88;7395025;19;20483;-37
2023/06/20 09:36:23;;;;;;;11.00;6.80;;;;;;;23.75;100.00;100704.91;7368895;19;20435;-41
2023/06/20 09:38:58;;;;;;;12.63;5.30;;;;;;;23.90;100.00;100718.75;7394737;19;20947;-39
2023/06/20 09:41:30;;;;;;;29.63;16.40;;;;;;;23.93;100.00;100721.34;7369301;19;20497;-40
2023/06/20 09:44:00;;;;;;;19.67;10.77;;;;;;;23.87;100.00;100727.56;7395040;19;20786;-36
2023/06/20 09:46:30;;;;;;;10.97;6.77;;;;;;;23.87;100.00;100725.81;7369264;19;20471;-36
2023/06/20 09:48:59;;;;;;;9.87;6.20;;;;;;;24.00;100.00;100717.72;7397697;19;20425;-38
2023/06/20 09:51:30;;;;;;;17.10;9.33;;;;;;;24.07;100.00;100719.41;7367532;19;20491;-39
2023/06/20 09:54:03;;;;;;;16.07;9.90;;;;;;;24.22;100.00;100728.84;7395327;19;20449;-39
2023/06/20 09:56:39;;;;;;;16.20;10.03;;;;;;;24.46;100.00;100729.31;7369735;19;20479;-43
2023/06/20 09:59:10;;;;;;;34.03;19.93;;;;;;;24.27;100.00;100736.66;7393836;19;20415;-36
2023/06/20 10:01:40;;;;;;;16.37;8.90;;;;;;;24.61;100.00;100743.16;7368850;19;20427;-43
2023/06/20 10:04:10;;;;;;;29.63;16.40;;;;;;;24.75;100.00;100733.22;7393422;19;20412;-36
2023/06/20 10:06:40;;;;;;;13.77;8.57;;;;;;;24.77;100.00;100751.66;7366146;19;20897;-36
2023/06/20 10:09:38;;;;;;;8.90;5.90;;;;;;;24.53;100.00;100751.19;7395551;19;20503;-37
2023/06/20 10:12:12;;;;;;;11.07;6.53;;;;;;;24.44;100.00;100744.28;7366279;19;20423;-34
2023/06/20 10:14:42;;;;;;;36.67;19.33;;;;;;;24.39;100.00;100730.31;7394239;19;20459;-37
2023/06/20 10:17:14;;;;;;;14.90;9.27;;;;;;;24.37;100.00;100740.00;7369120;19;20468;-38
2023/06/20 10:19:52;;;;;;;17.73;10.53;;;;;;;24.52;100.00;100731.84;7394391;19;20404;-36
2023/06/20 10:22:34;;;;;;;133.50;70.33;;;;;;;24.73;100.00;100735.03;7366368;19;21381;-39
2023/06/20 10:25:14;;;;;;;29.27;16.20;;;;;;;25.11;100.00;100758.97;7394311;19;20425;-35
2023/06/20 10:27:48;;;;;;;142.30;78.00;;;;;;;25.39;100.00;100761.09;7369753;19;20550;-35
2023/06/20 10:30:17;;;;;;;80.00;45.07;;;;;;;25.33;100.00;100766.50;7370184;19;20834;-39
2023/06/20 10:35:07;;;;;;;30.97;16.70;;;;;;;25.46;100.00;100807.59;7405357;19;20849;-37
2023/06/20 10:37:38;;;;;;;16.67;9.23;;;;;;;24.86;100.00;100774.41;7400191;19;20430;-38
2023/06/20 10:40:11;;;;;;;14.00;9.13;;;;;;;24.88;100.00;100759.41;7425554;19;20970;-38
2023/06/20 10:42:40;;;;;;;12.73;7.77;;;;;;;24.94;100.00;100754.91;7400944;19;21162;-35
2023/06/20 10:45:19;;;;;;;224.00;166.80;;;;;;;24.74;100.00;100759.63;7426320;19;20799;-35
2023/06/20 10:47:47;;;;;;;11.73;7.33;;;;;;;24.34;100.00;100746.22;7399392;19;20509;-35
2023/06/20 10:53:01;;;;;;;342.10;269.57;;;;;;;24.29;100.00;100694.47;7426693;19;20510;-38
2023/06/20 10:55:31;;;;;;;15.60;9.53;;;;;;;24.22;100.00;100689.31;7402391;19;20427;-36
2023/06/20 10:58:01;;;;;;;16.47;9.77;;;;;;;24.20;100.00;100690.22;7426887;19;20482;-37
2023/06/20 11:00:31;;;;;;;11.67;7.77;;;;;;;24.25;100.00;100669.94;7402840;19;20898;-38
2023/06/20 11:03:00;;;;;;;17.53;11.33;;;;;;;24.32;100.00;100653.13;7424961;19;20455;-36
2023/06/20 11:05:31;;;;;;;13.53;8.47;;;;;;;24.35;100.00;100654.84;7406428;19;20470;-37
2023/06/20 11:08:07;;;;;;;21.93;14.00;;;;;;;24.45;100.00;100650.25;7425969;19;20483;-34
2023/06/20 11:10:39;;;;;;;154.17;101.97;;;;;;;24.51;100.00;100636.97;7400431;19;20396;-34
2023/06/20 11:13:09;;;;;;;20.20;12.47;;;;;;;24.66;100.00;100633.19;7425351;19;20442;-38
2023/06/20 11:15:39;;;;;;;34.50;20.53;;;;;;;24.63;100.00;100614.75;7401393;19;20426;-37
2023/06/20 11:18:10;;;;;;;14.07;9.20;;;;;;;24.62;100.00;100605.97;7425155;19;20410;-40
2023/06/20 11:20:41;;;;;;;13.70;8.27;;;;;;;24.70;100.00;100597.06;7402386;19;21379;-38
2023/06/20 11:23:15;;;;;;;15.40;8.30;;;;;;;24.64;100.00;100603.31;7425681;19;20451;-36
2023/06/20 11:25:45;;;;;;;15.60;9.63;;;;;;;24.68;100.00;100599.72;7401049;19;20737;-37
2023/06/20 11:28:15;;;;;;;13.63;8.23;;;;;;;24.60;100.00;100602.50;7428878;19;20417;-34
2023/06/20 11:30:46;;;;;;;24.10;13.80;;;;;;;24.57;100.00;100592.03;7404127;19;20421;-37